createdAt,value
2022-08-22T00:02:26.736Z,40.00
2022-08-22T00:02:46.653Z,10.20
2022-08-22T00:02:53.143Z,10.13
2022-08-22T00:02:55.811Z,37.50
2022-08-22T00:05:05.122Z,41.55
2022-08-22T00:07:46.398Z,41.15
2022-08-22T00:10:25.616Z,42.10
2022-08-22T00:13:04.758Z,42.80
2022-08-22T00:15:43.533Z,43.28
2022-08-22T00:18:17.081Z,43.63
2022-08-22T00:20:51.007Z,42.88
2022-08-22T00:23:29.121Z,44.22
2022-08-22T00:26:05.411Z,44.28
2022-08-22T00:28:41.811Z,44.65
2022-08-22T00:31:21.307Z,44.97
2022-08-22T00:33:55.232Z,45.95
2022-08-22T00:36:34.008Z,47.80
2022-08-22T00:39:13.435Z,47.10
2022-08-22T00:42:31.386Z,46.67
2022-08-22T00:45:43.328Z,46.97
2022-08-22T00:48:37.626Z,47.78
2022-08-22T00:51:33.513Z,50.67
2022-08-22T00:54:17.639Z,50.05
2022-08-22T00:57:21.013Z,48.35
2022-08-22T01:00:07.129Z,48.67
2022-08-22T01:02:54.149Z,50.40
2022-08-22T01:05:52.139Z,49.60
2022-08-22T01:08:45.461Z,49.80
2022-08-22T01:11:34.489Z,49.25
2022-08-22T01:14:34.100Z,48.10
2022-08-22T01:17:28.954Z,49.00
2022-08-22T01:20:33.125Z,49.72
2022-08-22T01:23:55.963Z,48.00
2022-08-22T01:27:07.150Z,48.15
2022-08-22T01:30:16.480Z,48.53
2022-08-22T01:33:22.687Z,47.42
2022-08-22T01:36:17.092Z,47.50
2022-08-22T01:39:16.881Z,48.85
2022-08-22T01:42:13.321Z,48.10
2022-08-22T01:45:29.033Z,47.10
2022-08-22T01:48:06.864Z,47.75
2022-08-22T01:50:41.503Z,48.08
2022-08-22T01:53:23.838Z,49.38
2022-08-22T01:56:05.273Z,48.63
2022-08-22T01:58:37.731Z,48.78
2022-08-22T02:01:26.473Z,50.78
2022-08-22T02:04:05.565Z,48.92
2022-08-22T02:06:44.104Z,50.63
2022-08-22T02:09:30.997Z,50.90
2022-08-22T02:12:21.881Z,49.00
2022-08-22T02:14:59.589Z,48.22
2022-08-22T02:17:31.975Z,48.78
2022-08-22T02:20:11.355Z,50.33
2022-08-22T02:22:55.189Z,50.45
2022-08-22T02:25:32.294Z,50.15
2022-08-22T02:28:11.369Z,50.80
2022-08-22T02:30:49.697Z,51.45
2022-08-22T02:33:32.227Z,51.10
2022-08-22T02:36:11.440Z,50.88
2022-08-22T02:38:51.040Z,50.40
2022-08-22T02:41:30.918Z,52.83
2022-08-22T02:44:06.854Z,50.10
2022-08-22T02:46:49.110Z,48.40
2022-08-22T02:49:27.436Z,49.65
2022-08-22T02:52:10.117Z,49.22
2022-08-22T02:54:44.989Z,47.50
2022-08-22T02:57:20.947Z,47.30
2022-08-22T03:00:31.512Z,46.33
2022-08-22T03:03:06.990Z,45.40
2022-08-22T03:05:50.834Z,47.08
2022-08-22T03:08:26.461Z,46.90
2022-08-22T03:11:06.613Z,45.85
2022-08-22T03:13:54.716Z,43.65
2022-08-22T03:16:33.591Z,45.35
2022-08-22T03:19:13.209Z,44.17
2022-08-22T03:21:57.532Z,45.28
2022-08-22T03:24:35.171Z,44.28
2022-08-22T03:27:13.334Z,45.58
2022-08-22T03:30:03.907Z,44.85
2022-08-22T03:32:49.920Z,46.75
2022-08-22T03:35:27.907Z,46.60
2022-08-22T03:38:14.206Z,45.70
2022-08-22T03:41:11.622Z,46.35
2022-08-22T03:44:08.467Z,46.60
2022-08-22T03:47:08.592Z,46.92
2022-08-22T03:50:29.198Z,47.47
2022-08-22T03:53:22.742Z,50.35
2022-08-22T03:56:33.465Z,50.58
2022-08-22T03:59:27.151Z,50.03
2022-08-22T04:02:43.131Z,52.35
2022-08-22T04:05:58.806Z,54.45
2022-08-22T04:09:14.562Z,57.78
2022-08-22T04:12:18.669Z,57.92
2022-08-22T04:15:21.968Z,55.10
2022-08-22T04:18:25.997Z,59.20
2022-08-22T04:21:16.050Z,56.35
2022-08-22T04:24:14.873Z,61.88
2022-08-22T04:26:49.914Z,61.72
2022-08-22T04:29:24.975Z,63.85
2022-08-22T04:32:02.663Z,66.10
2022-08-22T04:34:39.646Z,66.55
2022-08-22T04:37:16.958Z,65.63
2022-08-22T04:39:53.312Z,69.88
2022-08-22T04:42:32.798Z,67.15
2022-08-22T04:45:08.476Z,70.07
2022-08-22T04:47:41.650Z,67.95
2022-08-22T04:50:20.787Z,70.68
2022-08-22T04:53:13.526Z,70.68
2022-08-22T04:55:53.049Z,71.18
2022-08-22T04:58:33.697Z,72.88
2022-08-22T05:01:15.045Z,72.20
2022-08-22T05:03:52.734Z,70.35
2022-08-22T05:06:28.189Z,70.40
2022-08-22T05:09:01.565Z,74.53
2022-08-22T05:11:32.447Z,74.32
2022-08-22T05:14:06.648Z,75.63
2022-08-22T05:16:39.333Z,75.10
2022-08-22T05:19:16.909Z,76.93
2022-08-22T05:21:51.334Z,75.05
2022-08-22T05:24:28.031Z,75.15
2022-08-22T05:27:01.634Z,76.60
2022-08-22T05:29:34.701Z,75.57
2022-08-22T05:32:09.717Z,77.03
2022-08-22T05:34:41.876Z,79.72
2022-08-22T05:37:15.990Z,86.93
2022-08-22T05:39:49.280Z,84.50
2022-08-22T05:42:25.152Z,86.15
2022-08-22T05:44:56.026Z,91.25
2022-08-22T05:47:29.465Z,92.35
2022-08-22T05:50:05.039Z,94.00
2022-08-22T05:53:03.066Z,97.85
2022-08-22T05:55:40.135Z,99.35
2022-08-22T05:58:39.198Z,98.65
2022-08-22T06:01:21.350Z,100.75
2022-08-22T06:04:00.900Z,101.15
2022-08-22T06:06:34.514Z,101.38
2022-08-22T06:09:13.916Z,106.43
2022-08-22T06:11:51.668Z,104.60
2022-08-22T06:14:33.357Z,108.07
2022-08-22T06:17:09.826Z,110.47
2022-08-22T06:19:43.143Z,110.78
2022-08-22T06:22:18.710Z,111.90
2022-08-22T06:24:52.592Z,114.13
2022-08-22T06:27:25.677Z,114.35
2022-08-22T06:29:59.347Z,113.07
2022-08-22T06:32:44.557Z,108.63
2022-08-22T06:35:25.906Z,108.90
2022-08-22T06:38:01.027Z,111.80
2022-08-22T06:40:32.518Z,114.97
2022-08-22T06:45:33.960Z,109.53
2022-08-22T06:48:17.369Z,115.57
2022-08-22T06:50:50.720Z,114.40
2022-08-22T06:53:23.758Z,113.88
2022-08-22T06:55:58.306Z,115.95
2022-08-22T06:58:34.270Z,118.20
2022-08-22T07:01:11.390Z,114.72
2022-08-22T07:03:46.731Z,118.75
2022-08-22T07:06:17.536Z,119.95
2022-08-22T07:08:47.417Z,120.45
2022-08-22T07:11:25.898Z,118.68
2022-08-22T07:13:58.877Z,117.25
2022-08-22T07:16:33.348Z,120.13
2022-08-22T07:19:03.370Z,117.22
2022-08-22T07:21:43.749Z,117.28
2022-08-22T07:24:19.489Z,117.30
2022-08-22T07:27:05.507Z,115.55
2022-08-22T07:29:45.575Z,119.82
2022-08-22T07:32:21.086Z,122.00
2022-08-22T07:35:04.856Z,121.95
2022-08-22T07:37:52.692Z,123.65
2022-08-22T07:40:30.107Z,119.50
2022-08-22T07:43:09.861Z,120.53
2022-08-22T07:45:45.370Z,122.30
2022-08-22T07:48:25.811Z,123.13
2022-08-22T07:51:11.499Z,123.07
2022-08-22T07:53:45.125Z,124.40
2022-08-22T07:56:18.721Z,121.78
2022-08-22T07:58:55.010Z,124.47
2022-08-22T08:01:25.577Z,122.90
2022-08-22T08:03:59.558Z,123.75
2022-08-22T08:06:31.585Z,124.75
2022-08-22T08:09:01.428Z,121.82
2022-08-22T08:11:38.559Z,128.57
2022-08-22T08:14:13.722Z,125.38
2022-08-22T08:16:46.342Z,124.32
2022-08-22T08:19:19.293Z,127.57
2022-08-22T08:21:53.154Z,121.18
2022-08-22T08:24:27.325Z,119.30
2022-08-22T08:27:16.075Z,115.20
2022-08-22T08:29:54.925Z,108.65
2022-08-22T08:32:26.477Z,100.38
2022-08-22T08:34:56.797Z,101.65
2022-08-22T08:37:31.614Z,100.10
2022-08-22T08:40:04.482Z,94.85
2022-08-22T08:43:14.323Z,95.57
2022-08-22T08:46:08.302Z,93.28
2022-08-22T08:49:06.932Z,91.22
2022-08-22T08:51:52.808Z,90.40
2022-08-22T08:54:44.738Z,91.38
2022-08-22T08:57:22.584Z,89.10
2022-08-22T09:00:04.891Z,89.10
2022-08-22T09:02:51.989Z,83.90
2022-08-22T09:05:56.188Z,83.45
2022-08-22T09:09:01.104Z,84.20
2022-08-22T09:12:01.189Z,81.25
2022-08-22T09:14:50.481Z,77.05
2022-08-22T09:17:41.049Z,74.00
2022-08-22T09:20:36.315Z,70.80
2022-08-22T09:23:37.372Z,67.60
2022-08-22T09:26:17.591Z,67.03
2022-08-22T09:28:55.666Z,67.45
2022-08-22T09:31:48.155Z,73.18
2022-08-22T09:34:28.451Z,70.68
2022-08-22T09:37:14.394Z,78.40
2022-08-22T09:39:52.886Z,75.57
2022-08-22T09:42:32.776Z,75.65
2022-08-22T09:45:42.899Z,73.63
2022-08-22T09:48:37.032Z,72.43
2022-08-22T09:51:32.246Z,74.07
2022-08-22T09:54:22.525Z,70.88
2022-08-22T09:57:09.675Z,71.20
2022-08-22T10:02:31.229Z,65.10
2022-08-22T10:05:07.258Z,63.28
2022-08-22T10:07:58.226Z,60.03
2022-08-22T10:10:45.937Z,56.60
2022-08-22T10:13:28.693Z,56.45
2022-08-22T10:16:06.245Z,54.33
2022-08-22T10:18:52.741Z,52.55
2022-08-22T10:21:35.857Z,53.85
2022-08-22T10:24:24.606Z,51.10
2022-08-22T10:27:04.382Z,56.10
2022-08-22T10:29:53.449Z,56.72
2022-08-22T10:32:33.000Z,55.20
2022-08-22T10:35:16.617Z,54.03
2022-08-22T10:37:55.786Z,53.28
2022-08-22T10:40:31.102Z,48.85
2022-08-22T10:43:10.417Z,50.75
2022-08-22T10:45:45.570Z,39.22
2022-08-22T10:48:32.270Z,39.28
2022-08-22T10:51:22.306Z,40.28
2022-08-22T10:54:04.961Z,41.63
2022-08-22T10:56:40.726Z,42.95
2022-08-22T10:59:33.526Z,42.47
2022-08-22T11:02:18.712Z,39.30
2022-08-22T11:05:21.232Z,43.58
2022-08-22T11:08:03.932Z,47.28
2022-08-22T11:10:49.206Z,50.67
2022-08-22T11:13:30.715Z,48.97
2022-08-22T11:16:15.228Z,46.40
2022-08-22T11:19:15.397Z,43.45
2022-08-22T11:21:56.490Z,40.80
2022-08-22T11:25:05.073Z,34.30
2022-08-22T11:27:44.292Z,29.48
2022-08-22T11:30:18.724Z,28.77
2022-08-22T11:33:46.359Z,30.08
2022-08-22T11:36:39.586Z,28.55
2022-08-22T11:39:24.531Z,28.35
2022-08-22T11:42:06.274Z,24.10
2022-08-22T11:44:50.461Z,23.80
2022-08-22T11:47:26.764Z,25.17
2022-08-22T11:50:10.759Z,23.13
2022-08-22T11:53:09.864Z,23.50
2022-08-22T11:55:42.812Z,22.17
2022-08-22T11:58:29.226Z,20.98
2022-08-22T12:01:04.707Z,20.77
2022-08-22T12:03:58.699Z,19.95
2022-08-22T12:06:44.896Z,19.00
2022-08-22T12:09:35.665Z,17.00
2022-08-22T12:12:20.850Z,15.73
2022-08-22T12:15:00.004Z,15.63
2022-08-22T12:18:04.870Z,16.10
2022-08-22T12:20:52.449Z,13.63
2022-08-22T12:23:52.650Z,10.88
2022-08-22T12:26:31.469Z,9.20
2022-08-22T12:29:33.573Z,8.90
2022-08-22T12:32:45.804Z,7.68
2022-08-22T12:35:32.653Z,7.95
2022-08-22T12:38:28.844Z,6.60
2022-08-22T12:41:35.032Z,6.20
2022-08-22T12:44:22.491Z,5.43
2022-08-22T12:47:06.772Z,5.38
2022-08-22T12:57:36.500Z,5.40
2022-08-22T13:00:26.714Z,5.88
2022-08-22T13:02:56.993Z,4.75
2022-08-22T13:05:29.532Z,5.75
2022-08-22T13:08:04.622Z,4.00
2022-08-22T13:10:47.803Z,4.93
2022-08-22T13:13:36.962Z,3.88
2022-08-22T13:16:11.677Z,4.35
2022-08-22T13:18:55.030Z,4.10
2022-08-22T13:21:34.602Z,4.50
2022-08-22T13:24:10.481Z,3.90
2022-08-22T13:26:50.053Z,3.65
2022-08-22T13:29:27.339Z,4.03
2022-08-22T13:32:11.325Z,4.97
2022-08-22T13:34:45.962Z,3.78
2022-08-22T13:37:24.397Z,4.47
2022-08-22T13:39:59.763Z,3.85
2022-08-22T13:42:32.512Z,4.32
2022-08-22T13:45:11.960Z,4.20
2022-08-22T13:47:51.389Z,3.90
2022-08-22T13:50:24.249Z,4.45
2022-08-22T13:53:00.255Z,4.40
2022-08-22T13:55:38.063Z,3.95
2022-08-22T13:58:24.945Z,4.18
2022-08-22T14:01:25.426Z,4.28
2022-08-22T14:04:01.118Z,6.95
2022-08-22T14:06:43.744Z,3.75
2022-08-22T14:09:32.146Z,3.92
2022-08-22T14:12:12.151Z,4.00
2022-08-22T14:14:45.878Z,7.50
2022-08-22T14:17:21.498Z,3.75
2022-08-22T14:20:01.501Z,3.90
2022-08-22T14:22:35.987Z,4.28
2022-08-22T14:25:10.234Z,3.55
2022-08-22T14:27:58.639Z,3.40
2022-08-22T14:30:30.808Z,3.70
2022-08-22T14:33:22.781Z,3.45
2022-08-22T14:35:57.586Z,3.30
2022-08-22T14:38:35.825Z,3.88
2022-08-22T14:41:08.065Z,4.22
2022-08-22T14:43:52.243Z,4.20
2022-08-22T14:46:26.929Z,4.13
2022-08-22T14:49:38.287Z,4.18
2022-08-22T14:52:19.527Z,4.88
2022-08-22T14:54:51.020Z,5.15
2022-08-22T14:57:20.912Z,4.68
2022-08-22T14:59:53.428Z,5.55
2022-08-22T15:02:28.298Z,4.30
2022-08-22T15:05:01.208Z,4.43
2022-08-22T15:07:37.551Z,3.60
2022-08-22T15:10:20.773Z,4.10
2022-08-22T15:12:55.581Z,3.85
2022-08-22T15:15:49.723Z,3.88
2022-08-22T15:18:36.209Z,3.88
2022-08-22T15:21:10.066Z,3.75
2022-08-22T15:23:46.723Z,3.80
2022-08-22T15:26:25.053Z,4.18
2022-08-22T15:29:06.501Z,4.00
2022-08-22T15:31:43.460Z,3.33
2022-08-22T15:34:25.149Z,3.57
2022-08-22T15:37:08.340Z,3.40
2022-08-22T15:40:02.658Z,4.07
2022-08-22T15:42:36.462Z,3.92
2022-08-22T15:45:07.701Z,4.53
2022-08-22T15:50:15.334Z,3.83
2022-08-22T15:53:21.152Z,4.07
2022-08-22T15:56:24.498Z,4.10
2022-08-22T15:59:11.137Z,3.58
2022-08-22T16:01:49.803Z,4.22
2022-08-22T16:04:35.473Z,3.88
2022-08-22T16:07:21.079Z,4.15
2022-08-22T16:09:53.521Z,4.10
2022-08-22T16:12:35.432Z,4.45
2022-08-22T16:15:09.243Z,4.15
2022-08-22T16:17:53.567Z,4.32
2022-08-22T16:20:55.606Z,4.20
2022-08-22T16:23:24.907Z,4.78
2022-08-22T16:26:15.141Z,4.53
2022-08-22T16:28:59.166Z,4.40
2022-08-22T16:31:32.582Z,4.70
2022-08-22T16:34:32.570Z,4.72
2022-08-22T16:37:47.631Z,5.10
2022-08-22T16:40:28.258Z,5.18
2022-08-22T16:43:28.995Z,5.40
2022-08-22T16:46:23.378Z,5.70
2022-08-22T16:49:03.220Z,5.97
2022-08-22T16:51:32.752Z,5.45
2022-08-22T16:54:11.889Z,5.82
2022-08-22T16:57:05.182Z,6.30
2022-08-22T16:59:54.373Z,6.10
2022-08-22T17:02:43.583Z,5.70
2022-08-22T17:05:46.682Z,6.63
2022-08-22T17:08:34.227Z,6.03
2022-08-22T17:11:53.607Z,5.68
2022-08-22T17:14:43.704Z,6.03
2022-08-22T17:17:26.788Z,5.93
2022-08-22T17:20:15.132Z,4.82
2022-08-22T17:22:57.911Z,5.20
2022-08-22T17:25:36.024Z,5.70
2022-08-22T17:28:17.213Z,5.93
2022-08-22T17:31:07.159Z,6.07
2022-08-22T17:34:13.899Z,5.68
2022-08-22T17:39:51.746Z,5.38
2022-08-22T17:42:44.366Z,5.65
2022-08-22T17:45:27.710Z,5.53
2022-08-22T17:48:07.599Z,6.32
2022-08-22T17:50:42.185Z,5.90
2022-08-22T17:53:18.345Z,6.72
2022-08-22T17:56:02.600Z,6.40
2022-08-22T17:58:43.591Z,5.72
2022-08-22T18:03:52.532Z,6.88
2022-08-22T18:06:26.677Z,6.65
2022-08-22T18:09:17.056Z,6.65
2022-08-22T18:11:56.866Z,6.40
2022-08-22T18:14:34.900Z,6.72
2022-08-22T18:17:19.186Z,7.50
2022-08-22T18:20:07.754Z,6.85
2022-08-22T18:22:45.987Z,7.03
2022-08-22T18:25:34.771Z,6.57
2022-08-22T18:28:11.984Z,7.45
2022-08-22T18:30:55.091Z,6.82
2022-08-22T18:33:32.903Z,7.38
2022-08-22T18:36:15.826Z,6.93
2022-08-22T18:38:55.143Z,8.32
2022-08-22T18:41:37.937Z,8.13
2022-08-22T18:44:17.015Z,7.97
2022-08-22T18:46:51.658Z,7.68
2022-08-22T18:49:53.679Z,7.72
2022-08-22T18:52:41.441Z,8.00
2022-08-22T18:55:31.636Z,7.80
2022-08-22T18:58:32.603Z,6.35
2022-08-22T19:01:42.125Z,6.83
2022-08-22T19:04:43.118Z,7.43
2022-08-22T19:07:28.020Z,7.03
2022-08-22T19:10:23.094Z,7.53
2022-08-22T19:13:14.322Z,8.15
2022-08-22T19:16:04.150Z,8.85
2022-08-22T19:18:46.453Z,10.43
2022-08-22T19:21:47.268Z,10.52
2022-08-22T19:24:37.392Z,10.23
2022-08-22T19:27:31.520Z,10.20
2022-08-22T19:30:04.411Z,11.25
2022-08-22T19:33:04.111Z,11.95
2022-08-22T19:35:47.378Z,11.18
2022-08-22T19:38:53.088Z,11.43
2022-08-22T19:42:00.753Z,11.98
2022-08-22T19:44:37.239Z,11.82
2022-08-22T19:47:17.666Z,12.27
2022-08-22T19:50:05.683Z,12.95
2022-08-22T19:53:10.385Z,13.48
2022-08-22T19:55:54.813Z,13.80
2022-08-22T19:58:40.381Z,14.20
2022-08-22T20:01:43.176Z,13.00
2022-08-22T20:04:37.743Z,14.30
2022-08-22T20:07:19.465Z,14.20
2022-08-22T20:09:59.037Z,14.43
2022-08-22T20:12:50.718Z,14.43
2022-08-22T20:21:02.057Z,14.93
2022-08-22T20:23:34.598Z,14.65
2022-08-22T20:26:04.686Z,15.98
2022-08-22T20:28:52.012Z,16.77
2022-08-22T20:31:24.123Z,16.63
2022-08-22T20:33:59.321Z,15.35
2022-08-22T20:39:11.354Z,15.32
2022-08-22T20:41:45.189Z,15.43
2022-08-22T20:46:57.450Z,16.65
2022-08-22T20:49:31.419Z,16.92
2022-08-22T20:52:05.960Z,16.83
2022-08-22T20:54:39.400Z,17.00
2022-08-22T20:57:16.697Z,17.85
2022-08-22T20:59:54.877Z,17.75
2022-08-22T21:02:28.711Z,17.20
2022-08-22T21:05:03.277Z,17.98
2022-08-22T21:07:35.607Z,18.13
2022-08-22T21:10:28.342Z,19.15
2022-08-22T21:13:08.622Z,19.80
2022-08-22T21:15:40.469Z,20.80
2022-08-22T21:18:11.816Z,19.85
2022-08-22T21:20:41.669Z,21.52
2022-08-22T21:23:15.589Z,20.55
2022-08-22T21:25:59.146Z,20.45
2022-08-22T21:28:31.318Z,21.90
2022-08-22T21:33:44.536Z,23.40
2022-08-22T21:36:22.347Z,21.90
2022-08-22T21:38:54.829Z,22.40
2022-08-22T21:41:33.539Z,22.20
2022-08-22T21:44:40.018Z,22.67
2022-08-22T21:47:30.736Z,23.60
2022-08-22T21:50:12.531Z,24.20
2022-08-22T21:52:44.939Z,23.67
2022-08-22T21:55:25.989Z,24.33
2022-08-22T21:58:22.019Z,23.85
2022-08-22T22:01:30.167Z,24.52
2022-08-22T22:04:00.692Z,23.52
2022-08-22T22:06:29.914Z,24.15
2022-08-22T22:08:59.150Z,25.58
2022-08-22T22:11:28.407Z,24.02
2022-08-22T22:14:04.671Z,24.83
2022-08-22T22:16:34.096Z,24.67
2022-08-22T22:19:03.376Z,24.60
2022-08-22T22:21:40.277Z,25.17
2022-08-22T22:24:14.734Z,24.90
2022-08-22T22:26:44.176Z,24.65
2022-08-22T22:29:15.705Z,25.60
2022-08-22T22:31:45.334Z,25.45
2022-08-22T22:34:19.705Z,26.40
2022-08-22T22:36:49.299Z,25.05
2022-08-22T22:39:18.478Z,26.10
2022-08-22T22:41:48.557Z,23.83
2022-08-22T22:44:25.328Z,24.02
2022-08-22T22:46:58.570Z,24.15
2022-08-22T22:49:36.535Z,24.67
2022-08-22T22:52:07.111Z,24.00
2022-08-22T22:54:46.743Z,24.20
2022-08-22T22:57:25.583Z,24.05
2022-08-22T23:00:02.185Z,24.05
2022-08-22T23:02:33.424Z,23.85
2022-08-22T23:05:02.594Z,24.58
2022-08-22T23:07:33.803Z,24.27
2022-08-22T23:10:12.330Z,23.30
2022-08-22T23:12:41.988Z,24.08
2022-08-22T23:15:14.345Z,24.70
2022-08-22T23:17:43.628Z,24.27
2022-08-22T23:20:13.127Z,24.85
2022-08-22T23:22:51.188Z,24.20
2022-08-22T23:25:20.637Z,24.75
2022-08-22T23:27:57.547Z,24.45
2022-08-22T23:30:28.629Z,23.73
2022-08-22T23:33:03.066Z,23.35
2022-08-22T23:35:32.353Z,23.27
2022-08-22T23:38:01.858Z,23.15
2022-08-22T23:40:31.297Z,24.05
2022-08-22T23:43:01.008Z,23.42
2022-08-22T23:45:32.465Z,23.75
2022-08-22T23:48:01.775Z,23.45
2022-08-22T23:50:31.111Z,24.35
2022-08-22T23:53:00.458Z,23.88
2022-08-22T23:55:29.789Z,22.92
2022-08-22T23:57:59.071Z,23.20
